This is the latest recevied weather packets stored in our database for station/object F4BQN-15. If no packets are shown the sender has not sent any weather packets the latest 10 day(s).
| Time | Temp. | Humidity | Pressure | Rain* | Wind** | Luminosity | Snow |
|---|---|---|---|---|---|---|---|
| 1777797672 | 21.11° C | 36% | 987.2 hPa | - | - | - | - |
| 1777796771 | 21.11° C | 35% | 987.2 hPa | - | - | - | - |
| 1777795871 | 20.56° C | 36% | 987.3 hPa | - | - | - | - |
| 1777794971 | 20° C | 35% | 987.2 hPa | - | - | - | - |
| 1777794071 | 20° C | 35% | 987.4 hPa | - | - | - | - |
| 1777793171 | 20° C | 35% | 987.2 hPa | - | - | - | - |
| 1777792523 | 19.44° C | 35% | 987.2 hPa | - | - | - | - |
| 1777791623 | 18.89° C | 35% | 987.1 hPa | - | - | - | - |
| 1777790723 | 18.89° C | 35% | 987 hPa | - | - | - | - |
| 1777789823 | 18.33° C | 35% | 987.1 hPa | - | - | - | - |
| 1777788923 | 18.33° C | 36% | 986.9 hPa | - | - | - | - |
| 1777788023 | 17.78° C | 36% | 986.8 hPa | - | - | - | - |
| 1777787123 | 17.78° C | 36% | 986.6 hPa | - | - | - | - |
| 1777786222 | 16.11° C | 41% | 986.4 hPa | - | - | - | - |
| 1777749318 | 22.78° C | 31% | 988.1 hPa | - | - | - | - |
| 1777748417 | 23.33° C | 31% | 988 hPa | - | - | - | - |
| 1777747517 | 23.33° C | 31% | 987.9 hPa | - | - | - | - |
| 1777746617 | 23.89° C | 31% | 987.8 hPa | - | - | - | - |
| 1777745717 | 24.44° C | 30% | 987.6 hPa | - | - | - | - |
| 1777744817 | 25.56° C | 30% | 987.4 hPa | - | - | - | - |
| 1777743917 | 26.11° C | 30% | 987.3 hPa | - | - | - | - |
| 1777743017 | 26.67° C | 29% | 987.3 hPa | - | - | - | - |
| 1777742117 | 27.78° C | 29% | 987.3 hPa | - | - | - | - |
| 1777741216 | 30° C | 29% | 987.4 hPa | - | - | - | - |
| 1777740316 | 32.22° C | 27% | 987.5 hPa | - | - | - | - |
* Rain since midnight (hover to see other rain measurements)
** Current wind speed in m/s (hover to see current wind gust speed)